sensor_id;sensor_type;location;lat;lon;timestamp;temperature;humidity
7502;DHT22;3792;47.740;7.606;2024-03-08T00:02:36;2.50;99.90
7502;DHT22;3792;47.740;7.606;2024-03-08T00:05:04;2.40;99.90
7502;DHT22;3792;47.740;7.606;2024-03-08T00:07:31;2.40;99.90
7502;DHT22;3792;47.740;7.606;2024-03-08T00:09:58;2.40;99.90
7502;DHT22;3792;47.740;7.606;2024-03-08T00:12:25;2.40;99.90
7502;DHT22;3792;47.740;7.606;2024-03-08T00:14:52;2.40;99.90
7502;DHT22;3792;47.740;7.606;2024-03-08T00:17:20;2.30;99.90
7502;DHT22;3792;47.740;7.606;2024-03-08T00:19:49;2.20;99.90
7502;DHT22;3792;47.740;7.606;2024-03-08T00:22:16;2.20;99.90
7502;DHT22;3792;47.740;7.606;2024-03-08T00:24:43;2.20;99.90
7502;DHT22;3792;47.740;7.606;2024-03-08T00:27:11;2.20;99.90
7502;DHT22;3792;47.740;7.606;2024-03-08T00:29:38;2.30;99.90
7502;DHT22;3792;47.740;7.606;2024-03-08T00:32:05;2.20;99.90
7502;DHT22;3792;47.740;7.606;2024-03-08T00:34:35;2.30;99.90
7502;DHT22;3792;47.740;7.606;2024-03-08T00:37:05;2.30;99.90
7502;DHT22;3792;47.740;7.606;2024-03-08T00:39:32;2.40;99.90
7502;DHT22;3792;47.740;7.606;2024-03-08T00:41:59;2.40;99.90
7502;DHT22;3792;47.740;7.606;2024-03-08T00:44:26;2.40;99.90
7502;DHT22;3792;47.740;7.606;2024-03-08T00:46:52;2.40;99.90
7502;DHT22;3792;47.740;7.606;2024-03-08T00:49:19;2.30;99.90
7502;DHT22;3792;47.740;7.606;2024-03-08T00:51:47;2.30;99.90
7502;DHT22;3792;47.740;7.606;2024-03-08T00:54:15;2.20;99.90
7502;DHT22;3792;47.740;7.606;2024-03-08T00:56:42;2.10;99.90
7502;DHT22;3792;47.740;7.606;2024-03-08T00:59:11;2.00;99.90
7502;DHT22;3792;47.740;7.606;2024-03-08T01:01:40;2.00;99.90
7502;DHT22;3792;47.740;7.606;2024-03-08T01:04:07;2.00;99.90
7502;DHT22;3792;47.740;7.606;2024-03-08T01:06:34;1.90;99.90
7502;DHT22;3792;47.740;7.606;2024-03-08T01:09:01;2.00;99.90
7502;DHT22;3792;47.740;7.606;2024-03-08T01:11:30;2.00;99.90
7502;DHT22;3792;47.740;7.606;2024-03-08T01:13:57;1.90;99.90
7502;DHT22;3792;47.740;7.606;2024-03-08T01:16:24;2.00;99.90
7502;DHT22;3792;47.740;7.606;2024-03-08T01:18:51;2.00;99.90
7502;DHT22;3792;47.740;7.606;2024-03-08T01:21:18;1.90;99.90
7502;DHT22;3792;47.740;7.606;2024-03-08T01:23:45;1.80;99.90
7502;DHT22;3792;47.740;7.606;2024-03-08T01:26:12;1.80;99.90
7502;DHT22;3792;47.740;7.606;2024-03-08T01:28:42;1.90;99.90
7502;DHT22;3792;47.740;7.606;2024-03-08T01:31:09;1.90;99.90
7502;DHT22;3792;47.740;7.606;2024-03-08T01:33:36;1.90;99.90
7502;DHT22;3792;47.740;7.606;2024-03-08T01:36:03;1.90;99.90
7502;DHT22;3792;47.740;7.606;2024-03-08T01:38:30;1.90;99.90
7502;DHT22;3792;47.740;7.606;2024-03-08T01:40:57;1.90;99.90
7502;DHT22;3792;47.740;7.606;2024-03-08T01:43:26;1.90;99.90
7502;DHT22;3792;47.740;7.606;2024-03-08T01:45:57;1.80;99.90
7502;DHT22;3792;47.740;7.606;2024-03-08T01:48:25;1.70;99.90
7502;DHT22;3792;47.740;7.606;2024-03-08T01:50:53;1.70;99.90
7502;DHT22;3792;47.740;7.606;2024-03-08T01:53:21;1.80;99.90
7502;DHT22;3792;47.740;7.606;2024-03-08T01:55:49;1.70;99.90
7502;DHT22;3792;47.740;7.606;2024-03-08T01:58:16;1.80;99.90
7502;DHT22;3792;47.740;7.606;2024-03-08T02:00:48;1.80;99.90
7502;DHT22;3792;47.740;7.606;2024-03-08T02:03:17;1.80;99.90
7502;DHT22;3792;47.740;7.606;2024-03-08T02:05:44;1.80;99.90
7502;DHT22;3792;47.740;7.606;2024-03-08T02:08:12;1.80;99.90
7502;DHT22;3792;47.740;7.606;2024-03-08T02:10:40;1.90;99.90
7502;DHT22;3792;47.740;7.606;2024-03-08T02:13:07;1.90;99.90
7502;DHT22;3792;47.740;7.606;2024-03-08T02:15:52;1.90;99.90
7502;DHT22;3792;47.740;7.606;2024-03-08T02:18:21;1.80;99.90
7502;DHT22;3792;47.740;7.606;2024-03-08T02:20:51;1.80;99.90
7502;DHT22;3792;47.740;7.606;2024-03-08T02:23:18;1.80;99.90
7502;DHT22;3792;47.740;7.606;2024-03-08T02:25:46;1.70;99.90
7502;DHT22;3792;47.740;7.606;2024-03-08T02:28:13;1.70;99.90
7502;DHT22;3792;47.740;7.606;2024-03-08T02:30:40;1.60;99.90
7502;DHT22;3792;47.740;7.606;2024-03-08T02:33:08;1.60;99.90
7502;DHT22;3792;47.740;7.606;2024-03-08T02:35:36;1.50;99.90
7502;DHT22;3792;47.740;7.606;2024-03-08T02:38:04;1.40;99.90
7502;DHT22;3792;47.740;7.606;2024-03-08T02:40:31;1.50;99.90
7502;DHT22;3792;47.740;7.606;2024-03-08T02:42:58;1.50;99.90
7502;DHT22;3792;47.740;7.606;2024-03-08T02:45:25;1.60;99.90
7502;DHT22;3792;47.740;7.606;2024-03-08T02:47:52;1.60;99.90
7502;DHT22;3792;47.740;7.606;2024-03-08T02:50:19;1.60;99.90
7502;DHT22;3792;47.740;7.606;2024-03-08T02:52:48;1.70;99.90
7502;DHT22;3792;47.740;7.606;2024-03-08T02:55:16;1.60;99.90
7502;DHT22;3792;47.740;7.606;2024-03-08T02:57:43;1.60;99.90
7502;DHT22;3792;47.740;7.606;2024-03-08T03:00:13;1.60;99.90
7502;DHT22;3792;47.740;7.606;2024-03-08T03:02:41;1.60;99.90
7502;DHT22;3792;47.740;7.606;2024-03-08T03:05:08;1.60;99.90
7502;DHT22;3792;47.740;7.606;2024-03-08T03:07:37;1.60;99.90
7502;DHT22;3792;47.740;7.606;2024-03-08T03:10:05;1.60;99.90
7502;DHT22;3792;47.740;7.606;2024-03-08T03:12:34;1.40;99.90
7502;DHT22;3792;47.740;7.606;2024-03-08T03:15:04;1.40;99.90
7502;DHT22;3792;47.740;7.606;2024-03-08T03:17:32;1.50;99.90
7502;DHT22;3792;47.740;7.606;2024-03-08T03:19:59;1.40;99.90
7502;DHT22;3792;47.740;7.606;2024-03-08T03:22:28;1.20;99.90
7502;DHT22;3792;47.740;7.606;2024-03-08T03:24:56;1.30;99.90
7502;DHT22;3792;47.740;7.606;2024-03-08T03:27:25;1.40;99.90
7502;DHT22;3792;47.740;7.606;2024-03-08T03:29:53;1.40;99.90
7502;DHT22;3792;47.740;7.606;2024-03-08T03:32:21;1.40;99.90
7502;DHT22;3792;47.740;7.606;2024-03-08T03:34:49;1.50;99.90
7502;DHT22;3792;47.740;7.606;2024-03-08T03:37:18;1.40;99.90
7502;DHT22;3792;47.740;7.606;2024-03-08T03:39:45;1.50;99.90
7502;DHT22;3792;47.740;7.606;2024-03-08T03:42:15;1.50;99.90
7502;DHT22;3792;47.740;7.606;2024-03-08T03:44:44;1.50;99.90
7502;DHT22;3792;47.740;7.606;2024-03-08T03:47:12;1.50;99.90
7502;DHT22;3792;47.740;7.606;2024-03-08T03:49:40;1.50;99.90
7502;DHT22;3792;47.740;7.606;2024-03-08T03:52:07;1.50;99.90
7502;DHT22;3792;47.740;7.606;2024-03-08T03:54:34;1.40;99.90
7502;DHT22;3792;47.740;7.606;2024-03-08T03:57:01;1.40;99.90
7502;DHT22;3792;47.740;7.606;2024-03-08T03:59:28;1.40;99.90
7502;DHT22;3792;47.740;7.606;2024-03-08T04:01:55;1.30;99.90
7502;DHT22;3792;47.740;7.606;2024-03-08T04:04:24;1.30;99.90
7502;DHT22;3792;47.740;7.606;2024-03-08T04:06:51;1.40;99.90
7502;DHT22;3792;47.740;7.606;2024-03-08T04:09:18;1.40;99.90
7502;DHT22;3792;47.740;7.606;2024-03-08T04:11:45;1.40;99.90
7502;DHT22;3792;47.740;7.606;2024-03-08T04:14:12;1.50;99.90
7502;DHT22;3792;47.740;7.606;2024-03-08T04:16:39;1.50;99.90
7502;DHT22;3792;47.740;7.606;2024-03-08T04:19:06;1.50;99.90
7502;DHT22;3792;47.740;7.606;2024-03-08T04:21:35;1.50;99.90
7502;DHT22;3792;47.740;7.606;2024-03-08T04:24:02;1.50;99.90
7502;DHT22;3792;47.740;7.606;2024-03-08T04:26:29;1.50;99.90
7502;DHT22;3792;47.740;7.606;2024-03-08T04:28:56;1.50;99.90
7502;DHT22;3792;47.740;7.606;2024-03-08T04:31:25;1.50;99.90
7502;DHT22;3792;47.740;7.606;2024-03-08T04:33:52;1.50;99.90
7502;DHT22;3792;47.740;7.606;2024-03-08T04:36:19;1.50;99.90
7502;DHT22;3792;47.740;7.606;2024-03-08T04:38:49;1.50;99.90
7502;DHT22;3792;47.740;7.606;2024-03-08T04:41:17;1.50;99.90
7502;DHT22;3792;47.740;7.606;2024-03-08T04:43:44;1.50;99.90
7502;DHT22;3792;47.740;7.606;2024-03-08T04:46:11;1.50;99.90
7502;DHT22;3792;47.740;7.606;2024-03-08T04:48:38;1.40;99.90
7502;DHT22;3792;47.740;7.606;2024-03-08T04:51:07;1.40;99.90
7502;DHT22;3792;47.740;7.606;2024-03-08T04:53:35;1.40;99.90
7502;DHT22;3792;47.740;7.606;2024-03-08T04:56:04;1.30;99.90
7502;DHT22;3792;47.740;7.606;2024-03-08T04:58:33;1.30;99.90
7502;DHT22;3792;47.740;7.606;2024-03-08T05:01:00;1.30;99.90
7502;DHT22;3792;47.740;7.606;2024-03-08T05:03:27;1.20;99.90
7502;DHT22;3792;47.740;7.606;2024-03-08T05:05:55;1.30;99.90
7502;DHT22;3792;47.740;7.606;2024-03-08T05:08:23;1.30;99.90
7502;DHT22;3792;47.740;7.606;2024-03-08T05:10:50;1.30;99.90
7502;DHT22;3792;47.740;7.606;2024-03-08T05:13:18;1.30;99.90
7502;DHT22;3792;47.740;7.606;2024-03-08T05:15:48;1.30;99.90
7502;DHT22;3792;47.740;7.606;2024-03-08T05:18:15;1.30;99.90
7502;DHT22;3792;47.740;7.606;2024-03-08T05:20:42;1.30;99.90
7502;DHT22;3792;47.740;7.606;2024-03-08T05:23:09;1.40;99.90
7502;DHT22;3792;47.740;7.606;2024-03-08T05:25:36;1.40;99.90
7502;DHT22;3792;47.740;7.606;2024-03-08T05:28:05;1.30;99.90
7502;DHT22;3792;47.740;7.606;2024-03-08T05:30:34;1.30;99.90
7502;DHT22;3792;47.740;7.606;2024-03-08T05:33:01;1.30;99.90
7502;DHT22;3792;47.740;7.606;2024-03-08T05:35:29;1.30;99.90
7502;DHT22;3792;47.740;7.606;2024-03-08T05:37:58;1.30;99.90
7502;DHT22;3792;47.740;7.606;2024-03-08T05:40:25;1.30;99.90
7502;DHT22;3792;47.740;7.606;2024-03-08T05:42:52;1.20;99.90
7502;DHT22;3792;47.740;7.606;2024-03-08T05:45:19;1.10;99.90
7502;DHT22;3792;47.740;7.606;2024-03-08T05:47:48;1.20;99.90
7502;DHT22;3792;47.740;7.606;2024-03-08T05:50:15;1.20;99.90
7502;DHT22;3792;47.740;7.606;2024-03-08T05:52:42;1.20;99.90
7502;DHT22;3792;47.740;7.606;2024-03-08T05:55:09;1.00;99.90
7502;DHT22;3792;47.740;7.606;2024-03-08T05:57:36;1.00;99.90
7502;DHT22;3792;47.740;7.606;2024-03-08T06:00:06;1.00;99.90
7502;DHT22;3792;47.740;7.606;2024-03-08T06:02:33;1.00;99.90
7502;DHT22;3792;47.740;7.606;2024-03-08T06:05:07;0.90;99.90
7502;DHT22;3792;47.740;7.606;2024-03-08T06:07:35;1.00;99.90
7502;DHT22;3792;47.740;7.606;2024-03-08T06:10:02;1.00;99.90
7502;DHT22;3792;47.740;7.606;2024-03-08T06:12:30;1.00;99.90
7502;DHT22;3792;47.740;7.606;2024-03-08T06:14:59;1.00;99.90
7502;DHT22;3792;47.740;7.606;2024-03-08T06:17:26;1.00;99.90
7502;DHT22;3792;47.740;7.606;2024-03-08T06:19:53;1.10;99.90
7502;DHT22;3792;47.740;7.606;2024-03-08T06:22:22;1.20;99.90
7502;DHT22;3792;47.740;7.606;2024-03-08T06:24:49;1.20;99.90
7502;DHT22;3792;47.740;7.606;2024-03-08T06:27:17;1.20;99.90
7502;DHT22;3792;47.740;7.606;2024-03-08T06:29:44;1.30;99.90
7502;DHT22;3792;47.740;7.606;2024-03-08T06:32:11;1.30;99.90
7502;DHT22;3792;47.740;7.606;2024-03-08T06:34:41;1.20;99.90
7502;DHT22;3792;47.740;7.606;2024-03-08T06:37:08;1.30;99.90
7502;DHT22;3792;47.740;7.606;2024-03-08T06:39:36;1.30;99.90
7502;DHT22;3792;47.740;7.606;2024-03-08T06:42:03;1.30;99.90
7502;DHT22;3792;47.740;7.606;2024-03-08T06:44:31;1.40;99.90
7502;DHT22;3792;47.740;7.606;2024-03-08T06:46:58;1.10;99.90
7502;DHT22;3792;47.740;7.606;2024-03-08T06:49:26;1.00;99.90
7502;DHT22;3792;47.740;7.606;2024-03-08T06:51:53;1.10;99.90
7502;DHT22;3792;47.740;7.606;2024-03-08T06:54:20;1.20;99.90
7502;DHT22;3792;47.740;7.606;2024-03-08T06:56:48;1.50;99.90
7502;DHT22;3792;47.740;7.606;2024-03-08T06:59:15;1.70;99.90
7502;DHT22;3792;47.740;7.606;2024-03-08T07:01:43;2.00;99.90
7502;DHT22;3792;47.740;7.606;2024-03-08T07:04:13;2.10;99.90
7502;DHT22;3792;47.740;7.606;2024-03-08T07:06:40;2.00;99.90
7502;DHT22;3792;47.740;7.606;2024-03-08T07:09:07;2.10;99.90
7502;DHT22;3792;47.740;7.606;2024-03-08T07:11:35;2.30;99.90
7502;DHT22;3792;47.740;7.606;2024-03-08T07:14:03;2.50;99.90
7502;DHT22;3792;47.740;7.606;2024-03-08T07:16:32;2.70;99.90
7502;DHT22;3792;47.740;7.606;2024-03-08T07:18:59;2.80;99.90
7502;DHT22;3792;47.740;7.606;2024-03-08T07:21:26;2.80;99.90
7502;DHT22;3792;47.740;7.606;2024-03-08T07:23:53;2.70;99.90
7502;DHT22;3792;47.740;7.606;2024-03-08T07:26:35;2.80;99.90
7502;DHT22;3792;47.740;7.606;2024-03-08T07:29:04;2.80;99.90
7502;DHT22;3792;47.740;7.606;2024-03-08T07:31:31;3.10;99.90
7502;DHT22;3792;47.740;7.606;2024-03-08T07:34:10;3.30;99.90
7502;DHT22;3792;47.740;7.606;2024-03-08T07:36:38;3.50;99.90
7502;DHT22;3792;47.740;7.606;2024-03-08T07:39:05;3.70;99.90
7502;DHT22;3792;47.740;7.606;2024-03-08T07:41:39;3.90;99.90
7502;DHT22;3792;47.740;7.606;2024-03-08T07:44:08;4.20;99.90
7502;DHT22;3792;47.740;7.606;2024-03-08T07:46:35;4.40;99.90
7502;DHT22;3792;47.740;7.606;2024-03-08T07:49:02;4.50;99.90
7502;DHT22;3792;47.740;7.606;2024-03-08T07:51:29;4.10;99.90
7502;DHT22;3792;47.740;7.606;2024-03-08T07:53:57;4.10;99.90
7502;DHT22;3792;47.740;7.606;2024-03-08T07:56:25;4.30;99.90
7502;DHT22;3792;47.740;7.606;2024-03-08T07:58:52;4.30;99.90
7502;DHT22;3792;47.740;7.606;2024-03-08T08:01:21;4.50;99.90
7502;DHT22;3792;47.740;7.606;2024-03-08T08:03:48;4.80;99.90
7502;DHT22;3792;47.740;7.606;2024-03-08T08:06:15;5.10;99.90
7502;DHT22;3792;47.740;7.606;2024-03-08T08:08:44;5.40;99.90
7502;DHT22;3792;47.740;7.606;2024-03-08T08:11:12;5.80;99.90
7502;DHT22;3792;47.740;7.606;2024-03-08T08:13:41;6.00;99.90
7502;DHT22;3792;47.740;7.606;2024-03-08T08:16:09;6.20;99.90
7502;DHT22;3792;47.740;7.606;2024-03-08T08:18:37;6.10;99.90
7502;DHT22;3792;47.740;7.606;2024-03-08T08:21:05;6.10;99.90
7502;DHT22;3792;47.740;7.606;2024-03-08T08:23:32;6.20;99.90
7502;DHT22;3792;47.740;7.606;2024-03-08T08:26:00;6.20;99.90
7502;DHT22;3792;47.740;7.606;2024-03-08T08:28:28;6.10;99.90
7502;DHT22;3792;47.740;7.606;2024-03-08T08:30:56;6.10;99.90
7502;DHT22;3792;47.740;7.606;2024-03-08T08:33:25;6.10;99.90
7502;DHT22;3792;47.740;7.606;2024-03-08T08:35:53;6.10;99.90
7502;DHT22;3792;47.740;7.606;2024-03-08T08:38:21;6.20;99.90
7502;DHT22;3792;47.740;7.606;2024-03-08T08:40:48;6.40;99.90
7502;DHT22;3792;47.740;7.606;2024-03-08T08:43:15;6.70;99.90
7502;DHT22;3792;47.740;7.606;2024-03-08T08:45:43;7.10;99.90
7502;DHT22;3792;47.740;7.606;2024-03-08T08:48:12;7.40;99.90
7502;DHT22;3792;47.740;7.606;2024-03-08T08:50:39;7.30;99.90
7502;DHT22;3792;47.740;7.606;2024-03-08T08:53:08;7.20;99.90
7502;DHT22;3792;47.740;7.606;2024-03-08T08:55:36;7.10;99.90
7502;DHT22;3792;47.740;7.606;2024-03-08T08:58:04;7.30;99.90
7502;DHT22;3792;47.740;7.606;2024-03-08T09:00:33;7.50;99.90
7502;DHT22;3792;47.740;7.606;2024-03-08T09:03:00;7.80;99.90
7502;DHT22;3792;47.740;7.606;2024-03-08T09:05:28;8.10;99.90
7502;DHT22;3792;47.740;7.606;2024-03-08T09:07:55;7.90;99.90
7502;DHT22;3792;47.740;7.606;2024-03-08T09:10:23;7.80;99.90
7502;DHT22;3792;47.740;7.606;2024-03-08T09:12:50;8.00;99.90
7502;DHT22;3792;47.740;7.606;2024-03-08T09:15:18;8.00;99.90
7502;DHT22;3792;47.740;7.606;2024-03-08T09:17:46;8.00;99.90
7502;DHT22;3792;47.740;7.606;2024-03-08T09:20:14;8.10;99.90
7502;DHT22;3792;47.740;7.606;2024-03-08T09:22:43;8.10;99.90
7502;DHT22;3792;47.740;7.606;2024-03-08T09:25:10;8.20;99.90
7502;DHT22;3792;47.740;7.606;2024-03-08T09:27:39;8.30;99.90
7502;DHT22;3792;47.740;7.606;2024-03-08T09:30:07;8.80;99.90
7502;DHT22;3792;47.740;7.606;2024-03-08T09:32:34;9.40;99.90
7502;DHT22;3792;47.740;7.606;2024-03-08T09:35:02;9.60;99.90
7502;DHT22;3792;47.740;7.606;2024-03-08T09:37:32;9.70;99.90
7502;DHT22;3792;47.740;7.606;2024-03-08T09:40:00;9.40;99.90
7502;DHT22;3792;47.740;7.606;2024-03-08T09:42:30;9.50;99.90
7502;DHT22;3792;47.740;7.606;2024-03-08T09:44:59;9.40;99.90
7502;DHT22;3792;47.740;7.606;2024-03-08T09:47:28;9.70;99.90
7502;DHT22;3792;47.740;7.606;2024-03-08T09:49:59;9.90;99.90
7502;DHT22;3792;47.740;7.606;2024-03-08T09:52:27;10.20;99.90
7502;DHT22;3792;47.740;7.606;2024-03-08T09:54:56;10.40;99.90
7502;DHT22;3792;47.740;7.606;2024-03-08T09:57:22;10.30;99.90
7502;DHT22;3792;47.740;7.606;2024-03-08T09:59:50;10.30;99.90
7502;DHT22;3792;47.740;7.606;2024-03-08T10:02:18;10.60;99.90
7502;DHT22;3792;47.740;7.606;2024-03-08T10:04:46;10.70;99.90
7502;DHT22;3792;47.740;7.606;2024-03-08T10:07:14;10.90;99.90
7502;DHT22;3792;47.740;7.606;2024-03-08T10:09:41;11.10;99.90
7502;DHT22;3792;47.740;7.606;2024-03-08T10:12:13;11.00;99.90
7502;DHT22;3792;47.740;7.606;2024-03-08T10:14:41;11.00;99.90
7502;DHT22;3792;47.740;7.606;2024-03-08T10:17:08;11.40;99.90
7502;DHT22;3792;47.740;7.606;2024-03-08T10:19:37;11.60;99.90
7502;DHT22;3792;47.740;7.606;2024-03-08T10:22:04;11.70;99.90
7502;DHT22;3792;47.740;7.606;2024-03-08T10:24:32;11.30;99.90
7502;DHT22;3792;47.740;7.606;2024-03-08T10:27:01;11.60;99.90
7502;DHT22;3792;47.740;7.606;2024-03-08T10:29:31;11.90;99.90
7502;DHT22;3792;47.740;7.606;2024-03-08T10:31:58;11.90;99.90
7502;DHT22;3792;47.740;7.606;2024-03-08T10:34:25;12.40;99.90
7502;DHT22;3792;47.740;7.606;2024-03-08T10:36:57;13.00;99.90
7502;DHT22;3792;47.740;7.606;2024-03-08T10:39:31;13.80;99.90
7502;DHT22;3792;47.740;7.606;2024-03-08T10:42:03;14.30;99.90
7502;DHT22;3792;47.740;7.606;2024-03-08T10:44:40;14.30;99.90
7502;DHT22;3792;47.740;7.606;2024-03-08T10:47:18;14.40;99.90
7502;DHT22;3792;47.740;7.606;2024-03-08T10:49:53;14.20;99.90
7502;DHT22;3792;47.740;7.606;2024-03-08T10:52:22;13.40;99.80
7502;DHT22;3792;47.740;7.606;2024-03-08T10:54:51;13.50;99.90
7502;DHT22;3792;47.740;7.606;2024-03-08T10:57:19;13.90;99.90
7502;DHT22;3792;47.740;7.606;2024-03-08T10:59:51;14.50;99.90
7502;DHT22;3792;47.740;7.606;2024-03-08T11:02:18;13.90;99.90
7502;DHT22;3792;47.740;7.606;2024-03-08T11:04:46;14.10;99.90
7502;DHT22;3792;47.740;7.606;2024-03-08T11:07:14;14.50;99.90
7502;DHT22;3792;47.740;7.606;2024-03-08T11:09:47;14.70;99.90
7502;DHT22;3792;47.740;7.606;2024-03-08T11:12:22;14.70;99.90
7502;DHT22;3792;47.740;7.606;2024-03-08T11:14:52;14.50;99.70
7502;DHT22;3792;47.740;7.606;2024-03-08T11:20:11;14.50;99.00
7502;DHT22;3792;47.740;7.606;2024-03-08T11:22:42;14.80;99.30
7502;DHT22;3792;47.740;7.606;2024-03-08T11:25:34;15.00;99.10
7502;DHT22;3792;47.740;7.606;2024-03-08T11:28:12;14.20;99.90
7502;DHT22;3792;47.740;7.606;2024-03-08T11:30:47;13.30;99.90
7502;DHT22;3792;47.740;7.606;2024-03-08T11:33:35;13.20;99.90
7502;DHT22;3792;47.740;7.606;2024-03-08T11:36:03;13.40;99.90
7502;DHT22;3792;47.740;7.606;2024-03-08T11:38:32;13.90;99.90
7502;DHT22;3792;47.740;7.606;2024-03-08T11:41:01;14.00;99.90
7502;DHT22;3792;47.740;7.606;2024-03-08T11:43:28;14.30;99.90
7502;DHT22;3792;47.740;7.606;2024-03-08T11:46:07;14.40;99.90
7502;DHT22;3792;47.740;7.606;2024-03-08T11:48:35;14.70;99.90
7502;DHT22;3792;47.740;7.606;2024-03-08T11:51:02;14.80;99.90
7502;DHT22;3792;47.740;7.606;2024-03-08T11:53:32;14.70;99.30
7502;DHT22;3792;47.740;7.606;2024-03-08T11:56:07;14.90;99.80
7502;DHT22;3792;47.740;7.606;2024-03-08T11:58:34;15.20;99.50
7502;DHT22;3792;47.740;7.606;2024-03-08T12:01:03;15.30;99.50
7502;DHT22;3792;47.740;7.606;2024-03-08T12:03:33;15.60;99.00
7502;DHT22;3792;47.740;7.606;2024-03-08T12:06:00;15.60;98.30
7502;DHT22;3792;47.740;7.606;2024-03-08T12:08:30;15.60;98.60
7502;DHT22;3792;47.740;7.606;2024-03-08T12:10:57;15.90;98.20
7502;DHT22;3792;47.740;7.606;2024-03-08T12:13:27;15.80;98.10
7502;DHT22;3792;47.740;7.606;2024-03-08T12:15:57;15.80;97.90
7502;DHT22;3792;47.740;7.606;2024-03-08T12:18:25;15.90;97.40
7502;DHT22;3792;47.740;7.606;2024-03-08T12:21:04;15.90;97.80
7502;DHT22;3792;47.740;7.606;2024-03-08T12:23:33;16.10;97.40
7502;DHT22;3792;47.740;7.606;2024-03-08T12:26:10;16.20;97.30
7502;DHT22;3792;47.740;7.606;2024-03-08T12:28:40;15.40;98.80
7502;DHT22;3792;47.740;7.606;2024-03-08T12:31:12;15.50;99.30
7502;DHT22;3792;47.740;7.606;2024-03-08T12:33:48;15.50;98.70
7502;DHT22;3792;47.740;7.606;2024-03-08T12:36:16;15.70;98.20
7502;DHT22;3792;47.740;7.606;2024-03-08T12:38:44;15.90;98.60
7502;DHT22;3792;47.740;7.606;2024-03-08T12:41:14;16.20;98.10
7502;DHT22;3792;47.740;7.606;2024-03-08T12:43:44;16.20;97.70
7502;DHT22;3792;47.740;7.606;2024-03-08T12:46:14;16.30;98.20
7502;DHT22;3792;47.740;7.606;2024-03-08T12:48:41;16.40;97.80
7502;DHT22;3792;47.740;7.606;2024-03-08T12:51:12;16.20;98.60
7502;DHT22;3792;47.740;7.606;2024-03-08T12:53:39;16.40;98.20
7502;DHT22;3792;47.740;7.606;2024-03-08T12:56:06;15.90;98.80
7502;DHT22;3792;47.740;7.606;2024-03-08T12:58:34;16.50;98.80
7502;DHT22;3792;47.740;7.606;2024-03-08T13:01:03;16.90;97.00
7502;DHT22;3792;47.740;7.606;2024-03-08T13:03:33;16.50;97.70
7502;DHT22;3792;47.740;7.606;2024-03-08T13:06:01;16.10;97.70
7502;DHT22;3792;47.740;7.606;2024-03-08T13:08:29;16.00;98.70
7502;DHT22;3792;47.740;7.606;2024-03-08T13:10:57;16.10;98.90
7502;DHT22;3792;47.740;7.606;2024-03-08T13:13:24;16.30;98.50
7502;DHT22;3792;47.740;7.606;2024-03-08T13:15:51;16.30;98.30
7502;DHT22;3792;47.740;7.606;2024-03-08T13:18:20;16.20;98.30
7502;DHT22;3792;47.740;7.606;2024-03-08T13:20:47;16.40;97.90
7502;DHT22;3792;47.740;7.606;2024-03-08T13:23:18;16.20;98.10
7502;DHT22;3792;47.740;7.606;2024-03-08T13:25:45;16.10;97.70
7502;DHT22;3792;47.740;7.606;2024-03-08T13:28:13;15.70;98.40
7502;DHT22;3792;47.740;7.606;2024-03-08T13:30:41;15.50;98.40
7502;DHT22;3792;47.740;7.606;2024-03-08T13:33:09;15.50;99.20
7502;DHT22;3792;47.740;7.606;2024-03-08T13:35:41;15.40;99.50
7502;DHT22;3792;47.740;7.606;2024-03-08T13:38:08;14.90;98.40
7502;DHT22;3792;47.740;7.606;2024-03-08T13:40:40;14.60;99.50
7502;DHT22;3792;47.740;7.606;2024-03-08T13:43:07;15.10;99.90
7502;DHT22;3792;47.740;7.606;2024-03-08T13:45:35;15.60;99.90
7502;DHT22;3792;47.740;7.606;2024-03-08T13:48:04;15.80;99.50
7502;DHT22;3792;47.740;7.606;2024-03-08T13:50:32;16.10;98.80
7502;DHT22;3792;47.740;7.606;2024-03-08T13:53:02;16.10;98.70
7502;DHT22;3792;47.740;7.606;2024-03-08T13:55:29;15.90;99.20
7502;DHT22;3792;47.740;7.606;2024-03-08T13:57:57;16.00;99.20
7502;DHT22;3792;47.740;7.606;2024-03-08T14:00:25;15.60;98.70
7502;DHT22;3792;47.740;7.606;2024-03-08T14:02:58;15.60;99.50
7502;DHT22;3792;47.740;7.606;2024-03-08T14:05:25;15.00;98.70
7502;DHT22;3792;47.740;7.606;2024-03-08T14:07:52;15.00;99.10
7502;DHT22;3792;47.740;7.606;2024-03-08T14:10:22;15.00;99.40
7502;DHT22;3792;47.740;7.606;2024-03-08T14:12:49;15.20;99.50
7502;DHT22;3792;47.740;7.606;2024-03-08T14:15:17;15.00;99.90
7502;DHT22;3792;47.740;7.606;2024-03-08T14:17:44;14.80;99.70
7502;DHT22;3792;47.740;7.606;2024-03-08T14:20:13;14.70;99.70
7502;DHT22;3792;47.740;7.606;2024-03-08T14:22:40;14.50;99.90
7502;DHT22;3792;47.740;7.606;2024-03-08T14:25:08;14.30;99.90
7502;DHT22;3792;47.740;7.606;2024-03-08T14:27:44;14.20;99.90
7502;DHT22;3792;47.740;7.606;2024-03-08T14:30:12;14.10;99.90
7502;DHT22;3792;47.740;7.606;2024-03-08T14:32:40;14.20;99.90
7502;DHT22;3792;47.740;7.606;2024-03-08T14:35:07;14.30;99.90
7502;DHT22;3792;47.740;7.606;2024-03-08T14:37:36;14.50;99.90
7502;DHT22;3792;47.740;7.606;2024-03-08T14:40:04;14.60;99.90
7502;DHT22;3792;47.740;7.606;2024-03-08T14:42:31;14.70;99.90
7502;DHT22;3792;47.740;7.606;2024-03-08T14:45:00;14.70;99.90
7502;DHT22;3792;47.740;7.606;2024-03-08T14:47:27;15.00;99.90
7502;DHT22;3792;47.740;7.606;2024-03-08T14:49:55;14.70;99.90
7502;DHT22;3792;47.740;7.606;2024-03-08T14:52:22;14.90;99.90
7502;DHT22;3792;47.740;7.606;2024-03-08T14:54:55;14.60;99.90
7502;DHT22;3792;47.740;7.606;2024-03-08T14:57:23;14.50;99.90
7502;DHT22;3792;47.740;7.606;2024-03-08T14:59:50;14.20;99.90
7502;DHT22;3792;47.740;7.606;2024-03-08T15:02:19;14.30;99.90
7502;DHT22;3792;47.740;7.606;2024-03-08T15:04:47;14.50;99.90
7502;DHT22;3792;47.740;7.606;2024-03-08T15:07:22;14.50;99.90
7502;DHT22;3792;47.740;7.606;2024-03-08T15:09:49;14.70;99.90
7502;DHT22;3792;47.740;7.606;2024-03-08T15:12:17;14.80;99.90
7502;DHT22;3792;47.740;7.606;2024-03-08T15:14:44;14.90;99.90
7502;DHT22;3792;47.740;7.606;2024-03-08T15:17:12;15.00;99.90
7502;DHT22;3792;47.740;7.606;2024-03-08T15:19:48;15.10;99.90
7502;DHT22;3792;47.740;7.606;2024-03-08T15:22:15;15.10;99.90
7502;DHT22;3792;47.740;7.606;2024-03-08T15:24:43;14.90;99.90
7502;DHT22;3792;47.740;7.606;2024-03-08T15:27:10;15.00;99.90
7502;DHT22;3792;47.740;7.606;2024-03-08T15:29:37;15.00;99.90
7502;DHT22;3792;47.740;7.606;2024-03-08T15:32:04;14.50;99.90
7502;DHT22;3792;47.740;7.606;2024-03-08T15:34:32;13.80;99.90
7502;DHT22;3792;47.740;7.606;2024-03-08T15:37:05;13.40;99.90
7502;DHT22;3792;47.740;7.606;2024-03-08T15:39:32;13.30;99.90
7502;DHT22;3792;47.740;7.606;2024-03-08T15:41:59;13.20;99.90
7502;DHT22;3792;47.740;7.606;2024-03-08T15:44:27;13.20;99.90
7502;DHT22;3792;47.740;7.606;2024-03-08T15:46:54;13.30;99.90
7502;DHT22;3792;47.740;7.606;2024-03-08T15:49:21;13.50;99.90
7502;DHT22;3792;47.740;7.606;2024-03-08T15:51:50;13.90;99.90
7502;DHT22;3792;47.740;7.606;2024-03-08T15:54:18;14.00;99.90
7502;DHT22;3792;47.740;7.606;2024-03-08T15:56:47;14.20;99.90
7502;DHT22;3792;47.740;7.606;2024-03-08T15:59:14;14.20;99.90
7502;DHT22;3792;47.740;7.606;2024-03-08T16:01:42;14.40;99.90
7502;DHT22;3792;47.740;7.606;2024-03-08T16:04:14;14.30;99.90
7502;DHT22;3792;47.740;7.606;2024-03-08T16:06:41;14.20;99.90
7502;DHT22;3792;47.740;7.606;2024-03-08T16:09:10;14.20;99.90
7502;DHT22;3792;47.740;7.606;2024-03-08T16:11:40;13.90;99.90
7502;DHT22;3792;47.740;7.606;2024-03-08T16:14:07;13.70;99.90
7502;DHT22;3792;47.740;7.606;2024-03-08T16:16:37;13.40;99.90
7502;DHT22;3792;47.740;7.606;2024-03-08T16:19:04;13.10;99.90
7502;DHT22;3792;47.740;7.606;2024-03-08T16:21:33;13.00;99.90
7502;DHT22;3792;47.740;7.606;2024-03-08T16:24:01;13.00;99.90